Time;durP1;ratioP1;P1;durP2;ratioP2;P2;SDS_P1;SDS_P2;PMS_P1;PMS_P2;Temp;Humidity;BMP_temperature;BMP_pressure;BME280_temperature;BME280_humidity;BME280_pressure;Samples;Min_cycle;Max_cycle;Signal;HPM_P1;HPM_P2
2021/05/05 00:01:24;;;;;;;5.13;3.53;;;12.10;99.90;;;;;;5030436;28;20021;-73
2021/05/05 00:03:49;;;;;;;3.40;2.92;;;12.10;99.90;;;;;;5030399;28;20111;-73
2021/05/05 00:06:17;;;;;;;5.00;3.28;;;12.10;99.90;;;;;;5031873;28;20051;-73
2021/05/05 00:08:43;;;;;;;6.05;3.50;;;12.10;99.90;;;;;;5030215;28;20471;-73
2021/05/05 00:11:09;;;;;;;4.72;3.30;;;12.10;99.90;;;;;;5030257;28;20032;-74
2021/05/05 00:13:35;;;;;;;5.53;4.05;;;12.10;99.90;;;;;;5030271;28;20402;-73
2021/05/05 00:16:01;;;;;;;4.40;3.58;;;12.10;99.90;;;;;;5030247;28;20083;-73
2021/05/05 00:18:27;;;;;;;5.88;3.63;;;12.10;99.90;;;;;;5031461;28;20022;-73
2021/05/05 00:20:53;;;;;;;5.32;3.33;;;12.00;99.90;;;;;;5030040;28;20459;-74
2021/05/05 00:23:19;;;;;;;5.78;3.38;;;12.00;99.90;;;;;;5031361;28;20025;-74
2021/05/05 00:25:44;;;;;;;5.25;3.92;;;12.00;99.90;;;;;;5031682;28;20032;-73
2021/05/05 00:28:10;;;;;;;5.28;3.28;;;12.00;99.90;;;;;;5031526;28;20084;-73
2021/05/05 00:30:36;;;;;;;6.60;3.65;;;12.00;99.90;;;;;;5029891;28;20399;-73
2021/05/05 00:33:01;;;;;;;4.65;3.33;;;11.90;99.90;;;;;;5031164;28;20556;-73
2021/05/05 00:35:27;;;;;;;5.05;3.33;;;11.90;99.90;;;;;;5029792;28;20136;-73
2021/05/05 00:37:53;;;;;;;5.20;3.80;;;11.80;99.90;;;;;;5029854;28;20056;-73
2021/05/05 00:40:18;;;;;;;5.63;3.38;;;11.80;99.90;;;;;;5030634;28;20395;-73
2021/05/05 00:42:44;;;;;;;4.28;3.65;;;11.80;99.90;;;;;;5031019;28;20506;-73
2021/05/05 00:45:12;;;;;;;7.00;3.40;;;11.80;99.90;;;;;;5030958;28;20026;-73
2021/05/05 00:47:39;;;;;;;5.80;4.10;;;11.70;99.90;;;;;;5030945;28;20018;-73
2021/05/05 00:50:07;;;;;;;5.85;3.90;;;11.70;99.90;;;;;;5029549;28;20029;-74
2021/05/05 00:52:34;;;;;;;6.70;4.07;;;11.70;99.90;;;;;;5030842;28;20030;-73
2021/05/05 00:54:59;;;;;;;6.03;4.13;;;11.70;99.90;;;;;;5029446;28;20034;-74
2021/05/05 00:57:27;;;;;;;4.90;4.13;;;11.70;99.90;;;;;;5029636;28;20379;-73
2021/05/05 00:59:52;;;;;;;5.30;3.95;;;11.70;99.90;;;;;;5031144;28;20596;-73
2021/05/05 01:02:19;;;;;;;5.82;4.25;;;11.70;99.90;;;;;;5029689;28;20138;-73
2021/05/05 01:04:45;;;;;;;5.97;4.35;;;11.70;99.90;;;;;;5029996;28;20533;-73
2021/05/05 01:07:11;;;;;;;6.85;4.93;;;11.70;99.90;;;;;;5030791;28;20026;-73
2021/05/05 01:09:42;;;;;;;7.82;4.93;;;11.70;99.90;;;;;;5030682;28;20080;-73
2021/05/05 01:12:08;;;;;;;6.90;5.03;;;11.60;99.90;;;;;;5030804;28;20021;-74
2021/05/05 01:14:34;;;;;;;5.97;4.68;;;11.60;99.90;;;;;;5029406;28;20083;-74
2021/05/05 01:16:59;;;;;;;7.32;4.93;;;11.60;99.90;;;;;;5030409;28;20025;-74
2021/05/05 01:19:25;;;;;;;6.28;4.72;;;11.60;99.90;;;;;;5030185;28;20025;-73
2021/05/05 01:21:50;;;;;;;7.32;4.32;;;11.50;99.90;;;;;;5028939;28;20026;-73
2021/05/05 01:24:16;;;;;;;5.75;4.25;;;11.50;99.90;;;;;;5030127;28;20022;-74
2021/05/05 01:26:41;;;;;;;5.70;4.30;;;11.40;99.90;;;;;;5030117;28;20093;-73
2021/05/05 01:29:09;;;;;;;7.63;4.57;;;11.40;99.90;;;;;;5030217;28;20068;-73
2021/05/05 01:31:34;;;;;;;7.00;4.55;;;11.40;99.90;;;;;;5030134;28;20475;-73
2021/05/05 01:34:00;;;;;;;9.90;5.60;;;11.30;99.90;;;;;;5028675;28;20043;-73
2021/05/05 01:36:33;;;;;;;9.75;5.13;;;11.30;99.90;;;;;;5028619;28;20021;-73
2021/05/05 01:38:59;;;;;;;5.53;3.63;;;11.30;99.90;;;;;;5030158;28;20518;-73
2021/05/05 01:41:25;;;;;;;5.78;4.85;;;11.30;99.90;;;;;;5029891;28;20392;-73
2021/05/05 01:43:50;;;;;;;7.05;4.78;;;11.30;99.90;;;;;;5029875;28;20051;-73
2021/05/05 01:46:18;;;;;;;6.75;4.90;;;11.30;99.90;;;;;;5028517;28;20017;-74
2021/05/05 01:48:44;;;;;;;6.78;4.65;;;11.30;99.90;;;;;;5030044;28;20471;-73
2021/05/05 01:51:10;;;;;;;6.97;4.95;;;11.20;99.90;;;;;;5029705;28;20034;-73
2021/05/05 01:53:36;;;;;;;6.25;5.18;;;11.20;99.90;;;;;;5028349;28;20063;-73
2021/05/05 01:56:01;;;;;;;5.70;4.70;;;11.20;99.90;;;;;;5029627;28;20040;-74
2021/05/05 01:58:27;;;;;;;6.30;5.20;;;11.10;99.90;;;;;;5029631;28;20026;-73
2021/05/05 02:00:53;;;;;;;6.20;4.68;;;11.10;99.90;;;;;;5028131;28;20555;-73
2021/05/05 02:03:18;;;;;;;6.35;4.97;;;11.10;99.90;;;;;;5028329;28;20127;-73
2021/05/05 02:05:44;;;;;;;7.15;4.88;;;11.10;99.90;;;;;;5029563;28;20049;-74
2021/05/05 02:08:10;;;;;;;5.90;5.05;;;11.10;99.90;;;;;;5029492;28;20475;-73
2021/05/05 02:10:35;;;;;;;7.85;5.88;;;11.10;99.90;;;;;;5028722;28;20509;-73
2021/05/05 02:13:01;;;;;;;9.27;5.63;;;11.00;99.90;;;;;;5029365;28;20449;-73
2021/05/05 02:15:26;;;;;;;8.82;6.00;;;11.00;99.90;;;;;;5029387;28;20457;-73
2021/05/05 02:17:52;;;;;;;8.55;6.18;;;11.00;99.90;;;;;;5028101;28;20032;-73
2021/05/05 02:20:21;;;;;;;7.55;6.03;;;11.00;99.90;;;;;;5029258;28;20022;-73
2021/05/05 02:22:48;;;;;;;8.93;6.70;;;11.00;99.90;;;;;;5027973;28;20025;-73
2021/05/05 02:25:14;;;;;;;8.18;5.72;;;11.00;99.90;;;;;;5029549;28;20029;-73
2021/05/05 02:27:40;;;;;;;8.23;7.00;;;10.90;99.90;;;;;;5029244;28;20394;-74
2021/05/05 02:30:08;;;;;;;9.13;6.07;;;10.90;99.90;;;;;;5029275;28;20398;-73
2021/05/05 02:32:35;;;;;;;8.55;6.32;;;10.90;99.90;;;;;;5029326;28;20044;-73
2021/05/05 02:35:02;;;;;;;7.80;5.43;;;10.80;99.90;;;;;;5027991;28;20021;-73
2021/05/05 02:37:28;;;;;;;8.10;5.55;;;10.80;99.90;;;;;;5029221;28;20114;-73
2021/05/05 02:39:54;;;;;;;8.68;5.63;;;10.80;99.90;;;;;;5029099;28;20073;-73
2021/05/05 02:42:20;;;;;;;7.20;5.40;;;10.70;99.90;;;;;;5029144;28;20017;-73
2021/05/05 02:44:48;;;;;;;10.77;6.82;;;10.70;99.90;;;;;;5029142;28;20033;-73
2021/05/05 02:47:15;;;;;;;7.63;5.85;;;10.70;99.90;;;;;;5029178;28;20032;-73
2021/05/05 02:49:41;;;;;;;8.02;6.63;;;10.70;99.90;;;;;;5029055;28;20021;-73
2021/05/05 02:52:07;;;;;;;6.70;5.57;;;10.60;99.90;;;;;;5029112;28;20096;-73
2021/05/05 02:54:32;;;;;;;6.95;5.75;;;10.60;99.90;;;;;;5028980;28;20025;-73
2021/05/05 02:56:58;;;;;;;8.95;6.70;;;10.60;99.90;;;;;;5029017;28;20025;-73
2021/05/05 02:59:25;;;;;;;8.18;6.60;;;10.60;99.90;;;;;;5028930;28;20029;-74
2021/05/05 03:01:52;;;;;;;7.35;6.20;;;10.60;99.90;;;;;;5028900;28;20505;-74
2021/05/05 03:04:18;;;;;;;7.68;6.18;;;10.60;99.90;;;;;;5027654;28;20032;-73
2021/05/05 03:06:44;;;;;;;8.43;6.20;;;10.60;99.90;;;;;;5028981;28;20029;-73
2021/05/05 03:09:10;;;;;;;7.07;4.95;;;10.70;99.90;;;;;;5028876;28;20017;-72
2021/05/05 03:11:35;;;;;;;6.90;5.43;;;10.70;99.90;;;;;;5028867;28;20033;-73
2021/05/05 03:14:01;;;;;;;5.75;4.65;;;10.70;99.90;;;;;;5029019;28;20493;-73
2021/05/05 03:16:26;;;;;;;7.22;5.05;;;10.80;99.90;;;;;;5029082;28;20033;-73
2021/05/05 03:18:52;;;;;;;6.75;5.15;;;10.80;99.90;;;;;;5028810;28;20175;-73
2021/05/05 03:21:19;;;;;;;7.53;5.10;;;10.80;99.90;;;;;;5029405;28;20027;-75
2021/05/05 03:23:45;;;;;;;6.32;5.30;;;10.90;99.90;;;;;;5032566;28;20063;-73
2021/05/05 03:26:10;;;;;;;6.15;5.15;;;10.90;99.90;;;;;;5032541;28;20101;-74
2021/05/05 03:28:36;;;;;;;6.53;4.50;;;10.90;99.90;;;;;;5032386;28;20117;-74
2021/05/05 03:31:01;;;;;;;7.80;5.03;;;10.90;99.90;;;;;;5031106;28;20022;-74
2021/05/05 03:33:27;;;;;;;6.65;4.72;;;10.90;99.90;;;;;;5031114;28;20079;-74
2021/05/05 03:35:53;;;;;;;7.68;4.63;;;10.90;99.90;;;;;;5031184;28;20108;-75
2021/05/05 03:38:18;;;;;;;6.57;4.90;;;10.90;99.90;;;;;;5032533;28;20029;-74
2021/05/05 03:40:44;;;;;;;7.88;5.75;;;10.90;99.90;;;;;;5059900;22;20056;-73
2021/05/05 03:43:10;;;;;;;6.85;4.93;;;10.90;99.90;;;;;;5052056;28;20021;-72
2021/05/05 03:45:35;;;;;;;6.75;5.15;;;10.90;99.90;;;;;;5052014;28;20104;-73
2021/05/05 03:48:01;;;;;;;7.25;4.75;;;11.00;99.90;;;;;;5050870;28;20013;-72
2021/05/05 03:50:27;;;;;;;9.95;5.07;;;11.00;99.90;;;;;;5050568;28;20021;-72
2021/05/05 03:52:52;;;;;;;8.85;5.28;;;11.00;99.90;;;;;;5051983;28;20451;-72
2021/05/05 03:55:19;;;;;;;6.90;4.95;;;11.10;99.90;;;;;;5051907;28;20063;-73
2021/05/05 03:57:45;;;;;;;6.47;4.50;;;11.10;99.90;;;;;;5051906;28;20029;-73
2021/05/05 04:00:12;;;;;;;5.43;4.50;;;11.10;99.90;;;;;;5051694;28;20021;-72
2021/05/05 04:02:37;;;;;;;5.78;4.60;;;11.20;99.90;;;;;;5050546;28;20489;-73
2021/05/05 04:05:04;;;;;;;6.75;4.85;;;11.20;99.90;;;;;;5050552;28;20024;-74
2021/05/05 04:07:29;;;;;;;6.13;4.47;;;11.20;99.90;;;;;;5051761;28;20537;-72
2021/05/05 04:09:56;;;;;;;5.22;4.07;;;11.20;99.90;;;;;;5050442;28;20052;-72
2021/05/05 04:12:22;;;;;;;6.75;5.28;;;11.20;99.90;;;;;;5051715;28;20074;-73
2021/05/05 04:14:47;;;;;;;5.35;4.40;;;11.20;99.90;;;;;;5051766;28;20047;-73
2021/05/05 04:17:13;;;;;;;6.60;5.18;;;11.20;99.90;;;;;;5052073;28;20078;-72
2021/05/05 04:19:40;;;;;;;6.95;4.85;;;11.20;99.90;;;;;;5051499;28;20025;-74
2021/05/05 04:22:05;;;;;;;6.05;5.32;;;11.20;99.90;;;;;;5050237;28;20555;-72
2021/05/05 04:24:31;;;;;;;5.70;4.80;;;11.20;99.90;;;;;;5051761;28;20028;-73
2021/05/05 04:26:58;;;;;;;6.72;4.97;;;11.20;99.90;;;;;;5051401;28;20063;-73
2021/05/05 04:29:24;;;;;;;6.45;4.90;;;11.30;99.90;;;;;;5051336;28;20025;-73
2021/05/05 04:31:52;;;;;;;7.25;5.20;;;11.30;99.90;;;;;;5051048;28;20566;-73
2021/05/05 04:34:18;;;;;;;6.85;4.90;;;11.20;99.90;;;;;;5051336;28;20053;-73
2021/05/05 04:36:44;;;;;;;9.48;5.30;;;11.20;99.90;;;;;;5049992;28;20561;-73
2021/05/05 04:39:09;;;;;;;8.20;4.93;;;11.20;99.90;;;;;;5050791;28;20119;-73
2021/05/05 04:41:35;;;;;;;6.75;5.38;;;11.20;99.90;;;;;;5050937;28;20036;-74
2021/05/05 04:44:01;;;;;;;7.03;5.07;;;11.20;99.90;;;;;;5049924;28;20075;-74
2021/05/05 04:46:27;;;;;;;8.02;5.15;;;11.20;99.90;;;;;;5051172;28;20021;-74
2021/05/05 04:48:52;;;;;;;6.53;5.22;;;11.10;99.90;;;;;;5049782;28;20423;-74
2021/05/05 04:51:18;;;;;;;9.02;5.65;;;11.20;99.90;;;;;;5050922;28;20482;-74
2021/05/05 04:53:44;;;;;;;7.65;5.45;;;11.10;99.90;;;;;;5049680;28;20020;-74
2021/05/05 04:56:09;;;;;;;8.18;5.75;;;11.20;99.90;;;;;;5051442;28;20032;-74
2021/05/05 04:58:35;;;;;;;10.75;5.90;;;11.20;99.90;;;;;;5050975;28;20037;-73
2021/05/05 05:01:01;;;;;;;8.20;5.85;;;11.20;99.90;;;;;;5050828;28;20068;-74
2021/05/05 05:03:27;;;;;;;8.93;5.50;;;11.30;99.90;;;;;;5050933;28;20052;-75
2021/05/05 05:05:52;;;;;;;6.70;5.68;;;11.30;99.90;;;;;;5050803;28;20078;-74
2021/05/05 05:08:18;;;;;;;7.38;5.53;;;11.30;99.90;;;;;;5050661;28;20474;-74
2021/05/05 05:10:43;;;;;;;6.40;5.28;;;11.30;99.90;;;;;;5050569;28;20582;-73
2021/05/05 05:13:09;;;;;;;9.38;5.88;;;11.40;99.90;;;;;;5050666;28;20502;-73
2021/05/05 05:15:35;;;;;;;7.07;5.30;;;11.40;99.90;;;;;;5049311;28;20518;-74
2021/05/05 05:18:01;;;;;;;7.30;5.43;;;11.40;99.90;;;;;;5050481;28;20031;-73
2021/05/05 05:20:26;;;;;;;8.18;5.95;;;11.40;99.90;;;;;;5050302;28;20128;-74
2021/05/05 05:22:55;;;;;;;7.97;5.45;;;11.40;99.90;;;;;;5050725;28;20023;-73
2021/05/05 05:25:22;;;;;;;7.25;5.55;;;11.40;99.90;;;;;;5050354;28;20051;-73
2021/05/05 05:27:47;;;;;;;5.70;4.50;;;11.40;99.90;;;;;;5050296;28;20515;-74
2021/05/05 05:30:13;;;;;;;4.07;3.30;;;11.30;99.90;;;;;;5050261;28;20029;-73
2021/05/05 05:32:39;;;;;;;3.42;2.88;;;11.30;99.90;;;;;;5050205;28;20040;-73
2021/05/05 05:35:05;;;;;;;3.92;3.30;;;11.20;99.90;;;;;;5050279;28;20032;-73
2021/05/05 05:37:31;;;;;;;3.55;2.40;;;11.10;99.90;;;;;;5049008;28;20389;-73
2021/05/05 05:39:56;;;;;;;2.75;2.05;;;11.00;99.90;;;;;;5048671;28;20028;-74
2021/05/05 05:42:22;;;;;;;2.47;1.30;;;10.80;99.90;;;;;;5050388;28;20068;-73
2021/05/05 05:44:47;;;;;;;2.80;0.90;;;10.70;99.90;;;;;;5049427;28;20036;-74
2021/05/05 05:47:13;;;;;;;1.83;0.93;;;10.50;99.90;;;;;;5050392;28;20092;-73
2021/05/05 05:49:38;;;;;;;3.45;1.00;;;10.20;99.90;;;;;;5050003;28;20387;-73
2021/05/05 05:52:04;;;;;;;1.50;1.02;;;10.00;99.90;;;;;;5049904;28;20425;-73
2021/05/05 05:54:30;;;;;;;2.17;0.90;;;9.90;99.90;;;;;;5049984;28;20039;-74
2021/05/05 05:56:56;;;;;;;3.42;0.82;;;9.70;99.90;;;;;;5050248;28;20037;-74
2021/05/05 05:59:21;;;;;;;1.83;0.90;;;9.50;99.90;;;;;;5049931;28;20025;-74
2021/05/05 06:01:47;;;;;;;2.55;1.10;;;9.40;99.90;;;;;;5050578;28;20025;-74
2021/05/05 06:04:13;;;;;;;2.67;1.02;;;9.20;99.90;;;;;;5049974;28;20100;-75
2021/05/05 06:06:38;;;;;;;2.40;1.10;;;9.20;99.90;;;;;;5048548;28;20017;-74
2021/05/05 06:09:04;;;;;;;2.53;1.20;;;9.10;99.90;;;;;;5048615;28;20027;-74
2021/05/05 06:11:30;;;;;;;1.88;1.00;;;8.90;99.90;;;;;;5048174;28;20115;-75
2021/05/05 06:13:55;;;;;;;1.80;1.10;;;8.80;99.90;;;;;;5049660;28;20028;-76
2021/05/05 06:16:21;;;;;;;3.25;1.10;;;8.80;99.90;;;;;;5048310;28;20033;-75
2021/05/05 06:18:47;;;;;;;3.47;1.13;;;8.70;99.90;;;;;;5049523;28;20478;-75
2021/05/05 06:21:12;;;;;;;1.52;1.15;;;8.70;99.90;;;;;;5048067;28;20025;-75
2021/05/05 06:23:38;;;;;;;2.33;1.10;;;8.60;99.90;;;;;;5048578;28;20021;-75
2021/05/05 06:26:03;;;;;;;2.15;1.30;;;8.60;99.90;;;;;;5049509;28;20016;-75
2021/05/05 06:28:29;;;;;;;3.92;1.75;;;8.60;99.90;;;;;;5049868;28;20074;-75
2021/05/05 06:30:57;;;;;;;1.55;1.10;;;8.50;99.90;;;;;;5048220;28;20450;-75
2021/05/05 06:33:23;;;;;;;1.40;1.30;;;8.60;99.90;;;;;;5049477;28;20433;-75
2021/05/05 06:35:48;;;;;;;2.72;1.10;;;8.70;99.90;;;;;;5049418;28;20021;-75
2021/05/05 06:38:14;;;;;;;3.83;1.00;;;8.80;99.90;;;;;;5050006;28;20029;-76
2021/05/05 06:40:39;;;;;;;2.58;1.05;;;8.80;99.90;;;;;;5050110;28;20041;-77
2021/05/05 06:43:05;;;;;;;3.70;1.30;;;8.80;99.90;;;;;;5048605;28;20071;-77
2021/05/05 06:45:31;;;;;;;1.35;0.90;;;8.80;99.90;;;;;;5048160;28;20028;-76
2021/05/05 06:47:56;;;;;;;1.83;1.10;;;8.70;99.90;;;;;;5048119;28;20021;-77
2021/05/05 06:50:23;;;;;;;1.02;0.80;;;8.60;99.90;;;;;;5047813;28;20017;-76
2021/05/05 06:52:48;;;;;;;1.90;1.00;;;8.50;99.90;;;;;;5049818;28;20033;-76
2021/05/05 06:55:14;;;;;;;2.67;1.00;;;8.40;99.90;;;;;;5049499;28;20367;-76
2021/05/05 06:57:40;;;;;;;1.52;1.10;;;8.40;99.90;;;;;;5053569;28;20075;-76
2021/05/05 07:00:07;;;;;;;2.05;1.20;;;8.40;99.90;;;;;;5052025;28;20106;-75
2021/05/05 07:02:33;;;;;;;3.85;1.40;;;8.30;99.90;;;;;;5053363;28;20025;-76
2021/05/05 07:04:58;;;;;;;2.60;1.20;;;8.30;99.90;;;;;;5053339;28;20024;-76
2021/05/05 07:07:25;;;;;;;5.82;1.48;;;8.30;99.90;;;;;;5051840;28;20490;-77
2021/05/05 07:09:52;;;;;;;2.53;1.40;;;8.40;99.90;;;;;;5051871;28;20433;-76
2021/05/05 07:12:19;;;;;;;3.25;1.75;;;8.40;99.90;;;;;;5053129;28;20032;-75
2021/05/05 07:14:44;;;;;;;1.83;1.08;;;8.30;99.90;;;;;;5051848;28;20025;-77
2021/05/05 07:17:10;;;;;;;1.65;1.10;;;8.30;99.90;;;;;;5053566;28;20025;-76
2021/05/05 07:19:36;;;;;;;1.38;1.15;;;8.20;99.90;;;;;;5051882;28;20394;-76
2021/05/05 07:22:02;;;;;;;2.00;1.30;;;8.10;99.90;;;;;;5051695;28;20116;-76
2021/05/05 07:24:27;;;;;;;1.70;1.30;;;8.10;99.90;;;;;;5053112;28;20025;-75
2021/05/05 07:26:53;;;;;;;1.85;1.40;;;8.00;99.90;;;;;;5052696;28;20088;-75
2021/05/05 07:29:19;;;;;;;2.58;1.55;;;7.90;99.90;;;;;;5051484;28;20432;-76
2021/05/05 07:31:45;;;;;;;3.00;1.85;;;7.80;99.90;;;;;;5051443;28;20037;-75
2021/05/05 07:34:14;;;;;;;2.85;1.40;;;7.80;99.90;;;;;;5051560;28;20374;-76
2021/05/05 07:36:43;;;;;;;2.50;1.10;;;7.70;99.90;;;;;;5052696;28;20543;-76
2021/05/05 07:49:20;;;;;;;1.70;0.80;;;7.50;99.90;;;;;;5052842;28;20079;-76
2021/05/05 07:51:46;;;;;;;0.45;0.45;;;7.70;99.90;;;;;;5051410;28;20451;-76
2021/05/05 07:54:13;;;;;;;1.08;0.77;;;7.90;99.90;;;;;;5051070;28;20056;-75
2021/05/05 07:56:39;;;;;;;1.00;0.68;;;8.10;99.90;;;;;;5052269;28;20053;-76
2021/05/05 07:59:05;;;;;;;1.85;0.98;;;8.30;99.90;;;;;;5050793;28;20106;-75
2021/05/05 08:01:32;;;;;;;1.65;0.82;;;8.70;99.90;;;;;;5050777;28;20132;-75
2021/05/05 08:03:59;;;;;;;0.73;0.60;;;8.90;99.90;;;;;;5050735;28;20025;-75
2021/05/05 08:06:26;;;;;;;1.88;0.80;;;9.10;99.90;;;;;;5051824;28;20025;-75
2021/05/05 08:08:52;;;;;;;1.00;0.80;;;9.20;99.90;;;;;;5049766;28;20107;-75
2021/05/05 08:11:18;;;;;;;2.05;0.60;;;9.00;99.90;;;;;;5051808;28;20026;-74
2021/05/05 08:13:44;;;;;;;1.50;0.77;;;9.00;99.90;;;;;;5050641;28;20025;-75
2021/05/05 08:16:10;;;;;;;2.15;0.80;;;8.90;99.90;;;;;;5050546;28;20025;-75
2021/05/05 08:18:36;;;;;;;1.40;0.75;;;8.70;99.90;;;;;;5051764;28;20037;-74
2021/05/05 08:21:05;;;;;;;1.05;0.70;;;8.60;99.90;;;;;;5051474;28;20029;-75
2021/05/05 08:23:31;;;;;;;1.60;0.93;;;8.50;99.90;;;;;;5051147;28;20017;-77
2021/05/05 08:25:56;;;;;;;2.53;1.00;;;8.50;99.90;;;;;;5051796;28;20416;-76
2021/05/05 08:28:22;;;;;;;2.88;1.42;;;8.40;99.90;;;;;;5050345;28;20035;-76
2021/05/05 08:30:49;;;;;;;1.02;0.88;;;8.50;99.90;;;;;;5051598;28;20444;-76
2021/05/05 08:33:15;;;;;;;1.40;0.93;;;9.10;99.90;;;;;;5050222;28;20021;-75
2021/05/05 08:35:40;;;;;;;1.05;0.73;;;9.60;99.90;;;;;;5051549;28;20071;-76
2021/05/05 08:38:06;;;;;;;1.60;0.77;;;10.20;99.90;;;;;;5051483;28;20112;-76
2021/05/05 08:40:33;;;;;;;2.53;1.00;;;10.70;99.90;;;;;;5049774;28;20033;-75
2021/05/05 08:42:59;;;;;;;1.92;1.15;;;10.70;99.90;;;;;;5051335;28;20017;-74
2021/05/05 08:45:28;;;;;;;3.05;0.95;;;10.90;99.90;;;;;;5051120;28;20083;-74
2021/05/05 08:47:58;;;;;;;1.85;1.20;;;11.00;99.90;;;;;;5051260;28;20059;-75
2021/05/05 08:50:26;;;;;;;2.60;1.00;;;10.80;99.90;;;;;;5049775;28;20028;-74
2021/05/05 08:52:53;;;;;;;2.88;0.90;;;10.50;99.90;;;;;;5051350;28;20025;-74
2021/05/05 08:55:21;;;;;;;1.95;1.13;;;10.10;99.90;;;;;;5051475;28;20025;-73
2021/05/05 08:57:47;;;;;;;2.80;1.08;;;9.70;99.90;;;;;;5051000;28;20080;-74
2021/05/05 09:00:16;;;;;;;2.92;0.95;;;9.60;99.90;;;;;;5051165;28;20021;-74
2021/05/05 09:02:42;;;;;;;2.63;1.20;;;9.30;99.90;;;;;;5050900;28;20124;-73
2021/05/05 09:05:11;;;;;;;3.67;1.13;;;9.10;99.90;;;;;;5049919;28;20127;-74
2021/05/05 09:07:41;;;;;;;2.28;1.00;;;8.90;99.90;;;;;;5049548;28;20433;-74
2021/05/05 09:10:08;;;;;;;3.38;0.90;;;8.80;99.90;;;;;;5050892;28;20013;-73
2021/05/05 09:12:36;;;;;;;1.38;0.93;;;8.90;99.90;;;;;;5049541;28;20119;-74
2021/05/05 09:15:11;;;;;;;1.85;1.30;;;9.00;99.90;;;;;;5051070;28;20050;-73
2021/05/05 09:17:40;;;;;;;1.85;1.00;;;9.10;99.90;;;;;;5050749;28;20040;-74
2021/05/05 09:20:06;;;;;;;1.45;0.95;;;9.30;99.90;;;;;;5050567;28;20036;-74
2021/05/05 09:22:48;;;;;;;1.98;1.13;;;9.40;99.90;;;;;;5050597;28;20401;-74
2021/05/05 09:25:16;;;;;;;;;;;9.30;99.90;;;;;;5051281;28;20045;-74
2021/05/05 09:27:42;;;;;;;2.28;1.10;;;9.30;99.90;;;;;;5049378;28;19905;-74
2021/05/05 09:30:21;;;;;;;3.13;1.48;;;9.40;99.90;;;;;;5050795;28;20066;-73
2021/05/05 09:32:52;;;;;;;4.03;1.00;;;9.60;99.90;;;;;;5050532;28;20107;-74
2021/05/05 09:35:19;;;;;;;2.78;1.67;;;9.60;99.90;;;;;;5049204;28;20470;-73
2021/05/05 09:37:59;;;;;;;1.95;1.25;;;9.50;99.90;;;;;;5049092;28;20029;-73
2021/05/05 09:40:26;;;;;;;3.63;1.10;;;9.40;99.90;;;;;;5051885;28;20501;-73
2021/05/05 09:42:52;;;;;;;2.97;1.30;;;9.40;99.90;;;;;;5049025;28;20040;-73
2021/05/05 09:45:18;;;;;;;3.22;1.35;;;9.30;99.90;;;;;;5050034;28;20021;-73
2021/05/05 09:47:56;;;;;;;2.40;1.33;;;9.30;99.90;;;;;;5048878;28;20025;-74
2021/05/05 09:50:44;;;;;;;1.60;1.33;;;9.40;99.90;;;;;;5048696;28;20028;-73
2021/05/05 09:53:24;;;;;;;3.58;1.40;;;9.50;99.90;;;;;;5050341;28;20478;-74
2021/05/05 09:55:59;;;;;;;1.85;1.38;;;9.30;99.90;;;;;;5050379;28;20025;-75
2021/05/05 09:58:38;;;;;;;2.33;1.60;;;9.10;99.90;;;;;;5048593;28;20155;-75
2021/05/05 10:01:03;;;;;;;4.10;1.70;;;9.00;99.90;;;;;;5049732;28;20025;-75
2021/05/05 10:03:48;;;;;;;2.67;1.45;;;8.80;99.90;;;;;;5048669;28;20536;-76
2021/05/05 10:06:33;;;;;;;2.30;1.42;;;8.70;99.90;;;;;;5049883;28;20029;-75
2021/05/05 10:09:05;;;;;;;3.35;1.58;;;8.70;99.90;;;;;;5048782;28;20045;-75
2021/05/05 10:11:36;;;;;;;3.35;1.35;;;8.60;99.90;;;;;;5049763;28;20027;-75
2021/05/05 10:14:10;;;;;;;2.03;1.20;;;8.60;99.90;;;;;;5048618;28;20033;-76
2021/05/05 10:16:39;;;;;;;3.05;1.50;;;8.60;99.90;;;;;;5050790;28;20041;-76
2021/05/05 10:19:08;;;;;;;2.53;1.67;;;9.00;99.90;;;;;;5049839;28;20024;-76
2021/05/05 10:21:39;;;;;;;2.83;1.90;;;9.50;99.90;;;;;;5049518;28;20028;-76
2021/05/05 10:24:07;;;;;;;1.67;1.35;;;9.80;99.90;;;;;;5048374;28;20017;-76
2021/05/05 10:26:33;;;;;;;1.45;1.27;;;10.20;99.90;;;;;;5048245;28;20033;-76
2021/05/05 10:28:59;;;;;;;2.03;1.73;;;10.40;99.90;;;;;;5048130;28;20021;-76
2021/05/05 10:31:27;;;;;;;1.85;1.23;;;10.50;99.90;;;;;;5048845;28;20087;-76
2021/05/05 10:33:59;;;;;;;4.25;1.75;;;10.50;99.90;;;;;;5049389;28;20021;-75
2021/05/05 10:36:33;;;;;;;2.30;1.88;;;10.80;99.90;;;;;;5049319;28;20118;-74
2021/05/05 10:39:00;;;;;;;2.28;1.23;;;11.40;99.90;;;;;;5049421;28;20029;-73
2021/05/05 10:41:26;;;;;;;1.70;1.30;;;11.90;99.90;;;;;;5047784;28;20041;-74
2021/05/05 10:43:56;;;;;;;4.05;1.48;;;12.30;99.90;;;;;;5049460;28;20543;-75
2021/05/05 10:46:27;;;;;;;1.35;1.23;;;12.80;99.90;;;;;;5049400;28;20028;-74
2021/05/05 10:49:07;;;;;;;1.20;1.10;;;12.80;99.90;;;;;;5048012;28;20064;-75
2021/05/05 10:51:45;;;;;;;1.38;1.10;;;12.40;99.90;;;;;;5047874;28;20464;-74
2021/05/05 10:54:11;;;;;;;2.50;1.50;;;12.10;99.90;;;;;;5047978;28;20052;-74
2021/05/05 10:56:37;;;;;;;1.25;1.15;;;11.50;99.90;;;;;;5049297;28;20029;-75
2021/05/05 10:59:07;;;;;;;3.22;2.83;;;10.90;99.90;;;;;;5048030;28;20390;-75
2021/05/05 11:01:41;;;;;;;1.90;1.50;;;10.70;99.90;;;;;;5049280;28;20057;-74
2021/05/05 11:04:07;;;;;;;2.25;1.33;;;10.60;99.90;;;;;;5049453;28;20033;-74
2021/05/05 11:06:36;;;;;;;3.42;2.40;;;10.70;99.90;;;;;;5047845;28;20111;-75
2021/05/05 11:09:14;;;;;;;2.92;2.30;;;10.80;99.90;;;;;;5049176;28;20024;-75
2021/05/05 11:11:44;;;;;;;4.82;2.80;;;10.70;99.90;;;;;;5047638;28;20103;-74
2021/05/05 11:14:32;;;;;;;4.35;2.25;;;10.60;99.90;;;;;;5047700;28;20029;-74
2021/05/05 11:17:02;;;;;;;2.13;1.48;;;10.60;99.90;;;;;;5047657;28;20029;-75
2021/05/05 11:19:40;;;;;;;2.22;1.50;;;10.30;99.90;;;;;;5047683;28;20079;-77
2021/05/05 11:22:18;;;;;;;3.20;1.55;;;10.10;99.90;;;;;;5047643;28;20462;-76
2021/05/05 11:24:47;;;;;;;2.50;1.30;;;10.00;99.90;;;;;;5049096;28;20074;-76
2021/05/05 11:27:15;;;;;;;3.92;1.50;;;10.00;99.90;;;;;;5047646;28;20485;-77
2021/05/05 11:29:44;;;;;;;2.75;1.40;;;10.00;99.90;;;;;;5047671;28;20025;-76
2021/05/05 11:32:13;;;;;;;3.35;1.77;;;10.10;99.90;;;;;;5049183;28;20108;-76
2021/05/05 11:34:42;;;;;;;4.72;1.70;;;10.20;99.90;;;;;;5048017;28;20428;-76
2021/05/05 11:37:12;;;;;;;3.97;1.75;;;10.00;99.90;;;;;;5049219;28;20028;-76
2021/05/05 11:39:43;;;;;;;5.65;2.15;;;9.60;99.90;;;;;;5048866;28;20032;-76
2021/05/05 11:42:14;;;;;;;4.95;2.20;;;9.40;99.90;;;;;;5050318;28;20121;-76
2021/05/05 11:44:49;;;;;;;5.20;1.40;;;9.10;99.90;;;;;;5051513;28;20020;-77
2021/05/05 11:47:20;;;;;;;4.90;1.80;;;8.80;99.90;;;;;;5051433;28;20025;-77
2021/05/05 11:49:49;;;;;;;4.78;1.42;;;8.00;99.90;;;;;;5052225;28;20066;-77
2021/05/05 11:52:19;;;;;;;3.30;1.35;;;7.60;99.90;;;;;;5052463;28;20398;-77
2021/05/05 11:54:45;;;;;;;6.13;2.33;;;7.40;99.90;;;;;;5052471;28;20032;-76
2021/05/05 11:57:10;;;;;;;2.92;1.50;;;7.40;99.90;;;;;;5050953;28;20028;-76
2021/05/05 11:59:36;;;;;;;10.82;3.45;;;7.50;99.90;;;;;;5052056;28;20029;-76
2021/05/05 12:02:03;;;;;;;8.48;3.92;;;7.70;99.90;;;;;;5050765;28;20127;-75
2021/05/05 12:04:36;;;;;;;4.78;1.50;;;8.10;99.90;;;;;;5052238;28;20028;-74
2021/05/05 12:07:02;;;;;;;7.05;3.20;;;8.90;99.90;;;;;;5050799;28;20025;-75
2021/05/05 12:09:29;;;;;;;3.80;1.65;;;9.50;99.90;;;;;;5051923;28;20029;-74
2021/05/05 12:12:29;;;;;;;4.38;1.80;;;9.50;99.90;;;;;;5051997;28;20475;-76
2021/05/05 12:15:02;;;;;;;6.60;2.95;;;9.40;99.90;;;;;;5050768;28;20055;-76
2021/05/05 12:17:47;;;;;;;4.20;1.77;;;9.20;99.90;;;;;;5051788;28;20505;-74
2021/05/05 12:20:18;;;;;;;4.80;1.73;;;9.00;99.90;;;;;;5051808;28;20035;-75
2021/05/05 12:22:55;;;;;;;7.50;2.60;;;8.90;99.90;;;;;;5051926;28;20037;-75
2021/05/05 12:25:27;;;;;;;5.97;1.98;;;8.90;99.90;;;;;;5051742;28;20052;-75
2021/05/05 12:28:03;;;;;;;5.65;1.63;;;8.90;99.90;;;;;;5051607;28;20017;-73
2021/05/05 12:30:45;;;;;;;5.50;1.90;;;9.00;99.90;;;;;;5050171;28;20492;-74
2021/05/05 12:33:12;;;;;;;4.40;1.90;;;9.20;99.90;;;;;;5051985;28;20020;-75
2021/05/05 12:35:40;;;;;;;8.13;2.10;;;9.60;99.90;;;;;;5051422;28;20099;-75
2021/05/05 12:38:11;;;;;;;3.70;1.80;;;9.70;99.90;;;;;;5050034;28;20032;-75
2021/05/05 12:40:37;;;;;;;5.97;1.88;;;9.80;99.90;;;;;;5051423;28;20414;-75
2021/05/05 12:43:19;;;;;;;5.25;1.85;;;9.80;99.90;;;;;;5051197;28;20103;-75
2021/05/05 12:45:47;;;;;;;4.47;1.88;;;10.10;99.90;;;;;;5050005;28;20387;-74
2021/05/05 12:48:19;;;;;;;5.93;1.65;;;10.30;99.90;;;;;;5049827;28;20021;-74
2021/05/05 12:50:45;;;;;;;6.88;1.70;;;10.60;99.90;;;;;;5049816;28;20025;-75
2021/05/05 12:53:11;;;;;;;3.40;1.30;;;10.70;99.90;;;;;;5049264;28;20368;-75
2021/05/05 12:55:39;;;;;;;3.65;1.50;;;10.70;99.90;;;;;;5049658;28;20051;-75
2021/05/05 12:58:15;;;;;;;6.00;1.52;;;10.90;99.90;;;;;;5050989;28;20021;-75
2021/05/05 13:00:46;;;;;;;2.45;1.15;;;11.20;99.90;;;;;;5049639;28;20028;-75
2021/05/05 13:03:14;;;;;;;4.47;1.40;;;11.30;99.90;;;;;;5051229;28;20025;-75